sensor_id;sensor_type;location;lat;lon;timestamp;P1;durP1;ratioP1;P2;durP2;ratioP2
60006;SDS011;45863;50.336;3.536;2023-03-23T00:01:02;7.43;;;4.63;;
60006;SDS011;45863;50.336;3.536;2023-03-23T00:03:28;9.40;;;4.97;;
60006;SDS011;45863;50.336;3.536;2023-03-23T00:05:59;9.10;;;5.13;;
60006;SDS011;45863;50.336;3.536;2023-03-23T00:08:30;8.68;;;4.93;;
60006;SDS011;45863;50.336;3.536;2023-03-23T00:10:55;8.35;;;5.05;;
60006;SDS011;45863;50.336;3.536;2023-03-23T00:13:26;8.40;;;4.20;;
60006;SDS011;45863;50.336;3.536;2023-03-23T00:15:52;7.80;;;4.57;;
60006;SDS011;45863;50.336;3.536;2023-03-23T00:18:20;8.80;;;3.63;;
60006;SDS011;45863;50.336;3.536;2023-03-23T00:20:46;7.32;;;4.32;;
60006;SDS011;45863;50.336;3.536;2023-03-23T00:23:14;6.28;;;3.50;;
60006;SDS011;45863;50.336;3.536;2023-03-23T00:25:47;6.80;;;3.78;;
60006;SDS011;45863;50.336;3.536;2023-03-23T00:28:13;6.72;;;3.55;;
60006;SDS011;45863;50.336;3.536;2023-03-23T00:30:39;7.28;;;3.55;;
60006;SDS011;45863;50.336;3.536;2023-03-23T00:33:06;10.85;;;4.13;;
60006;SDS011;45863;50.336;3.536;2023-03-23T00:35:32;6.50;;;3.72;;
60006;SDS011;45863;50.336;3.536;2023-03-23T00:37:57;5.32;;;3.03;;
60006;SDS011;45863;50.336;3.536;2023-03-23T00:40:23;7.78;;;4.07;;
60006;SDS011;45863;50.336;3.536;2023-03-23T00:42:49;7.25;;;3.22;;
60006;SDS011;45863;50.336;3.536;2023-03-23T00:45:14;5.80;;;3.22;;
60006;SDS011;45863;50.336;3.536;2023-03-23T00:47:40;5.65;;;3.78;;
60006;SDS011;45863;50.336;3.536;2023-03-23T00:50:06;5.55;;;3.03;;
60006;SDS011;45863;50.336;3.536;2023-03-23T00:52:32;5.93;;;2.50;;
60006;SDS011;45863;50.336;3.536;2023-03-23T00:54:57;6.53;;;3.13;;
60006;SDS011;45863;50.336;3.536;2023-03-23T00:57:22;5.53;;;2.80;;
60006;SDS011;45863;50.336;3.536;2023-03-23T00:59:51;5.72;;;2.58;;
60006;SDS011;45863;50.336;3.536;2023-03-23T01:02:16;4.07;;;2.15;;
60006;SDS011;45863;50.336;3.536;2023-03-23T01:04:43;5.78;;;2.67;;
60006;SDS011;45863;50.336;3.536;2023-03-23T01:07:11;7.88;;;1.80;;
60006;SDS011;45863;50.336;3.536;2023-03-23T01:09:43;5.55;;;2.83;;
60006;SDS011;45863;50.336;3.536;2023-03-23T01:12:09;4.10;;;1.83;;
60006;SDS011;45863;50.336;3.536;2023-03-23T01:14:34;5.90;;;1.83;;
60006;SDS011;45863;50.336;3.536;2023-03-23T01:17:00;4.37;;;2.13;;
60006;SDS011;45863;50.336;3.536;2023-03-23T01:19:25;4.10;;;1.55;;
60006;SDS011;45863;50.336;3.536;2023-03-23T01:21:50;5.07;;;1.67;;
60006;SDS011;45863;50.336;3.536;2023-03-23T01:24:15;6.88;;;2.33;;
60006;SDS011;45863;50.336;3.536;2023-03-23T01:26:41;4.85;;;2.22;;
60006;SDS011;45863;50.336;3.536;2023-03-23T01:29:06;6.72;;;2.22;;
60006;SDS011;45863;50.336;3.536;2023-03-23T01:31:31;4.90;;;2.17;;
60006;SDS011;45863;50.336;3.536;2023-03-23T01:33:56;5.72;;;2.40;;
60006;SDS011;45863;50.336;3.536;2023-03-23T01:36:25;3.47;;;1.73;;
60006;SDS011;45863;50.336;3.536;2023-03-23T01:38:57;5.35;;;2.25;;
60006;SDS011;45863;50.336;3.536;2023-03-23T01:41:23;3.08;;;1.83;;
60006;SDS011;45863;50.336;3.536;2023-03-23T01:43:54;3.58;;;1.45;;
60006;SDS011;45863;50.336;3.536;2023-03-23T01:46:20;3.85;;;2.08;;
60006;SDS011;45863;50.336;3.536;2023-03-23T01:48:47;4.85;;;2.00;;
60006;SDS011;45863;50.336;3.536;2023-03-23T01:51:14;5.22;;;1.92;;
60006;SDS011;45863;50.336;3.536;2023-03-23T01:53:51;4.07;;;2.20;;
60006;SDS011;45863;50.336;3.536;2023-03-23T01:56:19;3.30;;;1.50;;
60006;SDS011;45863;50.336;3.536;2023-03-23T02:01:15;3.53;;;1.83;;
60006;SDS011;45863;50.336;3.536;2023-03-23T02:03:42;3.95;;;1.85;;
60006;SDS011;45863;50.336;3.536;2023-03-23T02:06:07;4.38;;;1.95;;
60006;SDS011;45863;50.336;3.536;2023-03-23T02:08:32;4.43;;;1.67;;
60006;SDS011;45863;50.336;3.536;2023-03-23T02:10:58;4.32;;;1.77;;
60006;SDS011;45863;50.336;3.536;2023-03-23T02:13:24;3.85;;;1.88;;
60006;SDS011;45863;50.336;3.536;2023-03-23T02:26:27;4.18;;;2.00;;
60006;SDS011;45863;50.336;3.536;2023-03-23T02:34:17;3.85;;;1.70;;
60006;SDS011;45863;50.336;3.536;2023-03-23T02:36:50;4.18;;;1.88;;
60006;SDS011;45863;50.336;3.536;2023-03-23T02:39:24;3.13;;;1.30;;
60006;SDS011;45863;50.336;3.536;2023-03-23T02:41:51;3.45;;;1.80;;
60006;SDS011;45863;50.336;3.536;2023-03-23T02:44:18;3.75;;;1.42;;
60006;SDS011;45863;50.336;3.536;2023-03-23T02:46:43;4.57;;;1.50;;
60006;SDS011;45863;50.336;3.536;2023-03-23T02:49:09;5.38;;;2.00;;
60006;SDS011;45863;50.336;3.536;2023-03-23T02:51:36;2.92;;;1.38;;
60006;SDS011;45863;50.336;3.536;2023-03-23T02:54:01;5.32;;;1.73;;
60006;SDS011;45863;50.336;3.536;2023-03-23T02:56:28;5.35;;;1.30;;
60006;SDS011;45863;50.336;3.536;2023-03-23T02:58:54;6.13;;;1.60;;
60006;SDS011;45863;50.336;3.536;2023-03-23T03:03:51;5.05;;;1.73;;
60006;SDS011;45863;50.336;3.536;2023-03-23T03:06:54;3.15;;;1.60;;
60006;SDS011;45863;50.336;3.536;2023-03-23T03:09:12;6.78;;;1.88;;
60006;SDS011;45863;50.336;3.536;2023-03-23T03:11:39;6.03;;;1.95;;
60006;SDS011;45863;50.336;3.536;2023-03-23T03:14:08;14.25;;;2.70;;
60006;SDS011;45863;50.336;3.536;2023-03-23T03:16:36;5.13;;;1.45;;
60006;SDS011;45863;50.336;3.536;2023-03-23T03:21:33;4.50;;;1.38;;
60006;SDS011;45863;50.336;3.536;2023-03-23T03:24:00;4.88;;;2.03;;
60006;SDS011;45863;50.336;3.536;2023-03-23T03:26:26;7.25;;;1.50;;
60006;SDS011;45863;50.336;3.536;2023-03-23T03:28:52;5.13;;;1.60;;
60006;SDS011;45863;50.336;3.536;2023-03-23T03:31:19;5.95;;;1.85;;
60006;SDS011;45863;50.336;3.536;2023-03-23T03:33:45;5.75;;;1.45;;
60006;SDS011;45863;50.336;3.536;2023-03-23T03:36:15;7.38;;;1.80;;
60006;SDS011;45863;50.336;3.536;2023-03-23T03:38:42;5.30;;;1.50;;
60006;SDS011;45863;50.336;3.536;2023-03-23T03:41:08;5.80;;;1.80;;
60006;SDS011;45863;50.336;3.536;2023-03-23T03:43:33;9.43;;;2.30;;
60006;SDS011;45863;50.336;3.536;2023-03-23T03:46:00;9.88;;;2.47;;
60006;SDS011;45863;50.336;3.536;2023-03-23T03:48:25;7.63;;;2.10;;
60006;SDS011;45863;50.336;3.536;2023-03-23T03:50:50;6.53;;;1.93;;
60006;SDS011;45863;50.336;3.536;2023-03-23T03:53:17;5.88;;;1.55;;
60006;SDS011;45863;50.336;3.536;2023-03-23T03:55:42;4.80;;;1.88;;
60006;SDS011;45863;50.336;3.536;2023-03-23T03:58:10;5.90;;;1.77;;
60006;SDS011;45863;50.336;3.536;2023-03-23T04:00:35;7.28;;;1.63;;
60006;SDS011;45863;50.336;3.536;2023-03-23T04:03:00;7.90;;;2.17;;
60006;SDS011;45863;50.336;3.536;2023-03-23T04:05:26;8.18;;;2.17;;
60006;SDS011;45863;50.336;3.536;2023-03-23T04:07:53;6.13;;;1.85;;
60006;SDS011;45863;50.336;3.536;2023-03-23T04:10:19;6.53;;;1.70;;
60006;SDS011;45863;50.336;3.536;2023-03-23T04:12:46;7.30;;;1.77;;
60006;SDS011;45863;50.336;3.536;2023-03-23T04:15:11;9.27;;;1.88;;
60006;SDS011;45863;50.336;3.536;2023-03-23T04:17:36;5.00;;;2.00;;
60006;SDS011;45863;50.336;3.536;2023-03-23T04:20:02;3.20;;;1.35;;
60006;SDS011;45863;50.336;3.536;2023-03-23T04:22:37;5.88;;;1.85;;
60006;SDS011;45863;50.336;3.536;2023-03-23T04:25:02;6.07;;;1.67;;
60006;SDS011;45863;50.336;3.536;2023-03-23T04:27:31;3.92;;;1.60;;
60006;SDS011;45863;50.336;3.536;2023-03-23T04:29:56;5.00;;;1.63;;
60006;SDS011;45863;50.336;3.536;2023-03-23T04:32:23;7.25;;;1.85;;
60006;SDS011;45863;50.336;3.536;2023-03-23T04:34:49;8.10;;;1.83;;
60006;SDS011;45863;50.336;3.536;2023-03-23T04:37:15;6.53;;;2.00;;
60006;SDS011;45863;50.336;3.536;2023-03-23T04:39:40;5.03;;;1.83;;
60006;SDS011;45863;50.336;3.536;2023-03-23T04:42:06;7.38;;;2.00;;
60006;SDS011;45863;50.336;3.536;2023-03-23T04:44:31;7.75;;;1.75;;
60006;SDS011;45863;50.336;3.536;2023-03-23T04:46:57;10.13;;;2.38;;
60006;SDS011;45863;50.336;3.536;2023-03-23T04:49:26;5.13;;;2.00;;
60006;SDS011;45863;50.336;3.536;2023-03-23T04:51:51;5.40;;;1.80;;
60006;SDS011;45863;50.336;3.536;2023-03-23T04:54:17;6.97;;;2.10;;
60006;SDS011;45863;50.336;3.536;2023-03-23T04:56:42;9.98;;;1.85;;
60006;SDS011;45863;50.336;3.536;2023-03-23T04:59:07;6.88;;;1.98;;
60006;SDS011;45863;50.336;3.536;2023-03-23T05:01:33;5.00;;;1.57;;
60006;SDS011;45863;50.336;3.536;2023-03-23T05:04:01;5.13;;;1.63;;
60006;SDS011;45863;50.336;3.536;2023-03-23T05:06:27;8.98;;;3.00;;
60006;SDS011;45863;50.336;3.536;2023-03-23T05:08:52;4.63;;;1.45;;
60006;SDS011;45863;50.336;3.536;2023-03-23T05:11:17;7.70;;;2.25;;
60006;SDS011;45863;50.336;3.536;2023-03-23T05:13:42;6.93;;;1.70;;
60006;SDS011;45863;50.336;3.536;2023-03-23T05:16:09;4.40;;;1.50;;
60006;SDS011;45863;50.336;3.536;2023-03-23T05:18:34;4.28;;;1.70;;
60006;SDS011;45863;50.336;3.536;2023-03-23T05:21:00;7.43;;;2.50;;
60006;SDS011;45863;50.336;3.536;2023-03-23T05:23:26;9.27;;;2.20;;
60006;SDS011;45863;50.336;3.536;2023-03-23T05:25:54;7.97;;;2.03;;
60006;SDS011;45863;50.336;3.536;2023-03-23T05:28:20;7.82;;;2.25;;
60006;SDS011;45863;50.336;3.536;2023-03-23T05:30:47;5.03;;;1.85;;
60006;SDS011;45863;50.336;3.536;2023-03-23T05:33:12;5.97;;;1.85;;
60006;SDS011;45863;50.336;3.536;2023-03-23T05:35:37;6.22;;;1.63;;
60006;SDS011;45863;50.336;3.536;2023-03-23T05:38:03;7.43;;;2.20;;
60006;SDS011;45863;50.336;3.536;2023-03-23T05:40:29;10.73;;;2.08;;
60006;SDS011;45863;50.336;3.536;2023-03-23T05:42:55;7.18;;;2.35;;
60006;SDS011;45863;50.336;3.536;2023-03-23T05:45:22;9.48;;;1.83;;
60006;SDS011;45863;50.336;3.536;2023-03-23T05:47:48;6.18;;;1.85;;
60006;SDS011;45863;50.336;3.536;2023-03-23T05:50:13;9.60;;;1.95;;
60006;SDS011;45863;50.336;3.536;2023-03-23T05:52:38;5.80;;;2.40;;
60006;SDS011;45863;50.336;3.536;2023-03-23T05:55:04;6.40;;;1.85;;
60006;SDS011;45863;50.336;3.536;2023-03-23T05:57:30;4.45;;;1.50;;
60006;SDS011;45863;50.336;3.536;2023-03-23T05:59:55;8.48;;;1.63;;
60006;SDS011;45863;50.336;3.536;2023-03-23T06:02:22;5.38;;;1.55;;
60006;SDS011;45863;50.336;3.536;2023-03-23T06:04:49;6.32;;;2.45;;
60006;SDS011;45863;50.336;3.536;2023-03-23T06:07:14;7.50;;;1.83;;
60006;SDS011;45863;50.336;3.536;2023-03-23T06:09:40;5.50;;;1.80;;
60006;SDS011;45863;50.336;3.536;2023-03-23T06:12:06;5.38;;;1.67;;
60006;SDS011;45863;50.336;3.536;2023-03-23T06:14:32;6.43;;;1.88;;
60006;SDS011;45863;50.336;3.536;2023-03-23T06:16:57;3.45;;;1.25;;
60006;SDS011;45863;50.336;3.536;2023-03-23T06:19:22;5.85;;;1.83;;
60006;SDS011;45863;50.336;3.536;2023-03-23T06:21:48;6.88;;;1.45;;
60006;SDS011;45863;50.336;3.536;2023-03-23T06:24:13;7.43;;;2.03;;
60006;SDS011;45863;50.336;3.536;2023-03-23T06:26:39;5.13;;;1.80;;
60006;SDS011;45863;50.336;3.536;2023-03-23T06:29:06;4.88;;;1.88;;
60006;SDS011;45863;50.336;3.536;2023-03-23T06:31:36;7.57;;;2.42;;
60006;SDS011;45863;50.336;3.536;2023-03-23T06:34:02;8.25;;;2.20;;
60006;SDS011;45863;50.336;3.536;2023-03-23T06:36:27;7.80;;;1.95;;
60006;SDS011;45863;50.336;3.536;2023-03-23T06:38:53;7.53;;;1.80;;
60006;SDS011;45863;50.336;3.536;2023-03-23T06:41:18;5.90;;;2.10;;
60006;SDS011;45863;50.336;3.536;2023-03-23T06:43:43;8.23;;;2.13;;
60006;SDS011;45863;50.336;3.536;2023-03-23T06:46:11;7.75;;;2.20;;
60006;SDS011;45863;50.336;3.536;2023-03-23T06:48:36;3.72;;;1.20;;
60006;SDS011;45863;50.336;3.536;2023-03-23T06:51:01;3.80;;;1.08;;
60006;SDS011;45863;50.336;3.536;2023-03-23T06:53:27;6.18;;;1.15;;
60006;SDS011;45863;50.336;3.536;2023-03-23T06:55:52;3.38;;;0.85;;
60006;SDS011;45863;50.336;3.536;2023-03-23T06:58:18;8.55;;;1.38;;
60006;SDS011;45863;50.336;3.536;2023-03-23T07:00:43;3.67;;;1.02;;
60006;SDS011;45863;50.336;3.536;2023-03-23T07:03:09;5.45;;;2.00;;
60006;SDS011;45863;50.336;3.536;2023-03-23T07:05:35;4.30;;;1.20;;
60006;SDS011;45863;50.336;3.536;2023-03-23T07:08:01;4.55;;;1.50;;
60006;SDS011;45863;50.336;3.536;2023-03-23T07:10:26;9.43;;;2.15;;
60006;SDS011;45863;50.336;3.536;2023-03-23T07:12:52;5.65;;;1.63;;
60006;SDS011;45863;50.336;3.536;2023-03-23T07:15:17;7.97;;;2.05;;
60006;SDS011;45863;50.336;3.536;2023-03-23T07:17:43;8.35;;;2.28;;
60006;SDS011;45863;50.336;3.536;2023-03-23T07:20:08;3.60;;;1.23;;
60006;SDS011;45863;50.336;3.536;2023-03-23T07:22:33;3.65;;;1.20;;
60006;SDS011;45863;50.336;3.536;2023-03-23T07:24:59;4.15;;;1.73;;
60006;SDS011;45863;50.336;3.536;2023-03-23T07:27:24;5.63;;;1.48;;
60006;SDS011;45863;50.336;3.536;2023-03-23T07:29:50;5.00;;;1.77;;
60006;SDS011;45863;50.336;3.536;2023-03-23T07:32:15;5.10;;;1.50;;
60006;SDS011;45863;50.336;3.536;2023-03-23T07:34:40;7.00;;;1.20;;
60006;SDS011;45863;50.336;3.536;2023-03-23T07:37:06;6.15;;;2.00;;
60006;SDS011;45863;50.336;3.536;2023-03-23T07:39:32;6.78;;;2.80;;
60006;SDS011;45863;50.336;3.536;2023-03-23T07:41:58;7.97;;;2.35;;
60006;SDS011;45863;50.336;3.536;2023-03-23T07:44:23;5.28;;;2.03;;
60006;SDS011;45863;50.336;3.536;2023-03-23T07:46:48;5.78;;;1.90;;
60006;SDS011;45863;50.336;3.536;2023-03-23T07:49:14;7.40;;;2.30;;
60006;SDS011;45863;50.336;3.536;2023-03-23T07:51:39;7.25;;;2.53;;
60006;SDS011;45863;50.336;3.536;2023-03-23T07:54:05;8.20;;;1.80;;
60006;SDS011;45863;50.336;3.536;2023-03-23T07:56:32;5.85;;;3.15;;
60006;SDS011;45863;50.336;3.536;2023-03-23T07:58:58;8.30;;;3.83;;
60006;SDS011;45863;50.336;3.536;2023-03-23T08:01:23;9.63;;;3.33;;
60006;SDS011;45863;50.336;3.536;2023-03-23T08:03:49;9.68;;;3.33;;
60006;SDS011;45863;50.336;3.536;2023-03-23T08:06:15;7.85;;;3.55;;
60006;SDS011;45863;50.336;3.536;2023-03-23T08:08:40;10.35;;;3.92;;
60006;SDS011;45863;50.336;3.536;2023-03-23T08:11:06;12.98;;;4.68;;
60006;SDS011;45863;50.336;3.536;2023-03-23T08:13:31;11.57;;;5.28;;
60006;SDS011;45863;50.336;3.536;2023-03-23T08:15:58;15.13;;;5.43;;
60006;SDS011;45863;50.336;3.536;2023-03-23T08:18:23;12.30;;;4.22;;
60006;SDS011;45863;50.336;3.536;2023-03-23T08:20:50;11.52;;;4.90;;
60006;SDS011;45863;50.336;3.536;2023-03-23T08:23:15;12.48;;;5.75;;
60006;SDS011;45863;50.336;3.536;2023-03-23T08:25:41;13.45;;;5.50;;
60006;SDS011;45863;50.336;3.536;2023-03-23T08:28:07;9.80;;;4.78;;
60006;SDS011;45863;50.336;3.536;2023-03-23T08:30:34;6.75;;;3.00;;
60006;SDS011;45863;50.336;3.536;2023-03-23T08:33:01;8.27;;;2.70;;
60006;SDS011;45863;50.336;3.536;2023-03-23T08:35:27;6.97;;;2.83;;
60006;SDS011;45863;50.336;3.536;2023-03-23T08:37:53;13.73;;;3.88;;
60006;SDS011;45863;50.336;3.536;2023-03-23T08:40:20;12.35;;;3.33;;
60006;SDS011;45863;50.336;3.536;2023-03-23T08:42:46;7.43;;;3.20;;
60006;SDS011;45863;50.336;3.536;2023-03-23T08:45:14;12.15;;;4.18;;
60006;SDS011;45863;50.336;3.536;2023-03-23T08:47:40;12.05;;;3.85;;
60006;SDS011;45863;50.336;3.536;2023-03-23T08:50:06;12.98;;;3.97;;
60006;SDS011;45863;50.336;3.536;2023-03-23T08:52:31;8.60;;;3.03;;
60006;SDS011;45863;50.336;3.536;2023-03-23T08:54:57;10.95;;;3.35;;
60006;SDS011;45863;50.336;3.536;2023-03-23T08:57:23;10.65;;;3.70;;
60006;SDS011;45863;50.336;3.536;2023-03-23T08:59:49;7.85;;;3.20;;
60006;SDS011;45863;50.336;3.536;2023-03-23T09:02:14;8.50;;;2.25;;
60006;SDS011;45863;50.336;3.536;2023-03-23T09:04:41;11.05;;;3.40;;
60006;SDS011;45863;50.336;3.536;2023-03-23T09:07:08;9.98;;;3.30;;
60006;SDS011;45863;50.336;3.536;2023-03-23T09:09:33;13.13;;;3.85;;
60006;SDS011;45863;50.336;3.536;2023-03-23T09:11:59;8.65;;;2.55;;
60006;SDS011;45863;50.336;3.536;2023-03-23T09:14:24;8.68;;;2.67;;
60006;SDS011;45863;50.336;3.536;2023-03-23T09:16:50;8.15;;;2.95;;
60006;SDS011;45863;50.336;3.536;2023-03-23T09:19:15;9.10;;;3.22;;
60006;SDS011;45863;50.336;3.536;2023-03-23T09:21:40;9.97;;;2.87;;
60006;SDS011;45863;50.336;3.536;2023-03-23T09:24:06;9.73;;;2.47;;
60006;SDS011;45863;50.336;3.536;2023-03-23T09:26:31;12.30;;;2.25;;
60006;SDS011;45863;50.336;3.536;2023-03-23T09:28:57;13.85;;;2.63;;
60006;SDS011;45863;50.336;3.536;2023-03-23T09:31:23;10.32;;;3.22;;
60006;SDS011;45863;50.336;3.536;2023-03-23T09:33:51;13.52;;;3.10;;
60006;SDS011;45863;50.336;3.536;2023-03-23T09:36:17;9.38;;;3.42;;
60006;SDS011;45863;50.336;3.536;2023-03-23T09:38:42;7.03;;;3.20;;
60006;SDS011;45863;50.336;3.536;2023-03-23T09:44:09;10.05;;;3.83;;
60006;SDS011;45863;50.336;3.536;2023-03-23T09:46:45;8.57;;;2.90;;
60006;SDS011;45863;50.336;3.536;2023-03-23T09:49:15;6.50;;;3.08;;
60006;SDS011;45863;50.336;3.536;2023-03-23T09:51:52;7.05;;;2.85;;
60006;SDS011;45863;50.336;3.536;2023-03-23T09:56:44;6.85;;;2.67;;
60006;SDS011;45863;50.336;3.536;2023-03-23T09:59:24;5.72;;;2.22;;
60006;SDS011;45863;50.336;3.536;2023-03-23T10:01:52;4.85;;;2.58;;
60006;SDS011;45863;50.336;3.536;2023-03-23T10:04:22;7.55;;;2.05;;
60006;SDS011;45863;50.336;3.536;2023-03-23T10:06:48;10.73;;;3.38;;
60006;SDS011;45863;50.336;3.536;2023-03-23T10:09:15;8.10;;;2.15;;
60006;SDS011;45863;50.336;3.536;2023-03-23T10:19:50;4.95;;;1.80;;
60006;SDS011;45863;50.336;3.536;2023-03-23T10:22:19;9.23;;;2.20;;
60006;SDS011;45863;50.336;3.536;2023-03-23T10:24:49;7.30;;;1.98;;
60006;SDS011;45863;50.336;3.536;2023-03-23T10:29:46;4.03;;;1.70;;
60006;SDS011;45863;50.336;3.536;2023-03-23T10:32:13;6.03;;;2.00;;
60006;SDS011;45863;50.336;3.536;2023-03-23T10:39:55;5.70;;;1.80;;
60006;SDS011;45863;50.336;3.536;2023-03-23T10:42:25;5.40;;;1.33;;
60006;SDS011;45863;50.336;3.536;2023-03-23T10:44:51;7.47;;;2.00;;
60006;SDS011;45863;50.336;3.536;2023-03-23T10:47:17;4.25;;;1.98;;
60006;SDS011;45863;50.336;3.536;2023-03-23T10:49:50;6.45;;;2.25;;
60006;SDS011;45863;50.336;3.536;2023-03-23T10:52:30;6.68;;;2.65;;
60006;SDS011;45863;50.336;3.536;2023-03-23T10:57:30;5.05;;;2.40;;
60006;SDS011;45863;50.336;3.536;2023-03-23T10:59:59;7.18;;;2.80;;
60006;SDS011;45863;50.336;3.536;2023-03-23T11:02:24;7.40;;;3.00;;
60006;SDS011;45863;50.336;3.536;2023-03-23T11:04:54;6.20;;;2.22;;
60006;SDS011;45863;50.336;3.536;2023-03-23T11:07:24;6.82;;;2.80;;
60006;SDS011;45863;50.336;3.536;2023-03-23T11:09:51;7.53;;;3.08;;
60006;SDS011;45863;50.336;3.536;2023-03-23T11:12:18;11.90;;;2.55;;
60006;SDS011;45863;50.336;3.536;2023-03-23T11:14:43;13.23;;;4.07;;
60006;SDS011;45863;50.336;3.536;2023-03-23T11:17:23;8.95;;;2.78;;
60006;SDS011;45863;50.336;3.536;2023-03-23T11:19:49;9.07;;;2.67;;
60006;SDS011;45863;50.336;3.536;2023-03-23T11:22:28;8.57;;;2.97;;
60006;SDS011;45863;50.336;3.536;2023-03-23T11:24:55;6.82;;;2.85;;
60006;SDS011;45863;50.336;3.536;2023-03-23T11:27:21;10.25;;;3.58;;
60006;SDS011;45863;50.336;3.536;2023-03-23T11:29:55;9.65;;;3.60;;
60006;SDS011;45863;50.336;3.536;2023-03-23T11:32:30;7.90;;;2.53;;
60006;SDS011;45863;50.336;3.536;2023-03-23T11:35:00;8.52;;;3.13;;
60006;SDS011;45863;50.336;3.536;2023-03-23T11:37:32;10.13;;;3.60;;
60006;SDS011;45863;50.336;3.536;2023-03-23T11:40:03;8.70;;;2.10;;
60006;SDS011;45863;50.336;3.536;2023-03-23T11:42:47;5.68;;;2.70;;
60006;SDS011;45863;50.336;3.536;2023-03-23T11:45:20;7.93;;;3.00;;
60006;SDS011;45863;50.336;3.536;2023-03-23T11:47:54;5.68;;;2.95;;
60006;SDS011;45863;50.336;3.536;2023-03-23T11:50:21;9.70;;;2.72;;
60006;SDS011;45863;50.336;3.536;2023-03-23T11:52:58;6.50;;;2.55;;
60006;SDS011;45863;50.336;3.536;2023-03-23T11:55:32;6.18;;;2.42;;
60006;SDS011;45863;50.336;3.536;2023-03-23T11:58:03;10.95;;;1.83;;
60006;SDS011;45863;50.336;3.536;2023-03-23T12:00:30;6.05;;;2.10;;
60006;SDS011;45863;50.336;3.536;2023-03-23T12:02:57;5.63;;;2.55;;
60006;SDS011;45863;50.336;3.536;2023-03-23T12:08:03;9.55;;;2.90;;
60006;SDS011;45863;50.336;3.536;2023-03-23T12:28:54;12.13;;;2.58;;
60006;SDS011;45863;50.336;3.536;2023-03-23T12:36:41;6.00;;;2.45;;
60006;SDS011;45863;50.336;3.536;2023-03-23T12:41:45;13.53;;;3.13;;
60006;SDS011;45863;50.336;3.536;2023-03-23T12:44:13;10.00;;;3.90;;
60006;SDS011;45863;50.336;3.536;2023-03-23T12:46:47;8.13;;;2.60;;
60006;SDS011;45863;50.336;3.536;2023-03-23T12:51:46;11.80;;;2.97;;
60006;SDS011;45863;50.336;3.536;2023-03-23T12:59:30;10.77;;;3.38;;
60006;SDS011;45863;50.336;3.536;2023-03-23T13:07:44;12.30;;;3.65;;
60006;SDS011;45863;50.336;3.536;2023-03-23T13:12:44;12.13;;;2.80;;
60006;SDS011;45863;50.336;3.536;2023-03-23T13:15:46;9.48;;;2.92;;
60006;SDS011;45863;50.336;3.536;2023-03-23T13:23:08;7.90;;;2.33;;
60006;SDS011;45863;50.336;3.536;2023-03-23T13:28:17;9.35;;;2.40;;
60006;SDS011;45863;50.336;3.536;2023-03-23T13:33:11;11.23;;;3.17;;
60006;SDS011;45863;50.336;3.536;2023-03-23T13:35:38;16.17;;;3.65;;
60006;SDS011;45863;50.336;3.536;2023-03-23T13:38:18;13.60;;;4.10;;
60006;SDS011;45863;50.336;3.536;2023-03-23T13:40:44;16.17;;;4.07;;
60006;SDS011;45863;50.336;3.536;2023-03-23T13:43:10;12.73;;;3.88;;
60006;SDS011;45863;50.336;3.536;2023-03-23T13:50:51;10.45;;;3.65;;
60006;SDS011;45863;50.336;3.536;2023-03-23T13:56:05;10.60;;;3.55;;
60006;SDS011;45863;50.336;3.536;2023-03-23T13:58:31;9.90;;;3.05;;
60006;SDS011;45863;50.336;3.536;2023-03-23T14:03:48;7.65;;;2.42;;
60006;SDS011;45863;50.336;3.536;2023-03-23T14:06:21;12.48;;;3.50;;
60006;SDS011;45863;50.336;3.536;2023-03-23T14:08:50;13.88;;;2.92;;
60006;SDS011;45863;50.336;3.536;2023-03-23T14:11:21;12.07;;;3.40;;
60006;SDS011;45863;50.336;3.536;2023-03-23T14:16:16;8.40;;;2.60;;
60006;SDS011;45863;50.336;3.536;2023-03-23T14:18:47;7.60;;;2.63;;
60006;SDS011;45863;50.336;3.536;2023-03-23T14:21:15;7.93;;;1.73;;
60006;SDS011;45863;50.336;3.536;2023-03-23T14:23:41;6.80;;;2.30;;
60006;SDS011;45863;50.336;3.536;2023-03-23T14:26:11;8.25;;;2.42;;
60006;SDS011;45863;50.336;3.536;2023-03-23T14:28:41;9.35;;;3.20;;
60006;SDS011;45863;50.336;3.536;2023-03-23T14:33:41;10.88;;;3.08;;
60006;SDS011;45863;50.336;3.536;2023-03-23T14:36:06;9.73;;;2.90;;
60006;SDS011;45863;50.336;3.536;2023-03-23T14:38:32;8.10;;;2.75;;
60006;SDS011;45863;50.336;3.536;2023-03-23T14:41:10;9.45;;;2.67;;
60006;SDS011;45863;50.336;3.536;2023-03-23T14:43:36;8.93;;;2.60;;
60006;SDS011;45863;50.336;3.536;2023-03-23T14:46:02;12.20;;;3.03;;
60006;SDS011;45863;50.336;3.536;2023-03-23T14:48:30;13.18;;;3.58;;
60006;SDS011;45863;50.336;3.536;2023-03-23T14:50:59;7.95;;;2.47;;
60006;SDS011;45863;50.336;3.536;2023-03-23T14:55:55;8.85;;;2.47;;
60006;SDS011;45863;50.336;3.536;2023-03-23T14:58:23;7.60;;;2.63;;
60006;SDS011;45863;50.336;3.536;2023-03-23T15:01:10;5.18;;;2.05;;
60006;SDS011;45863;50.336;3.536;2023-03-23T15:03:35;7.38;;;2.28;;
60006;SDS011;45863;50.336;3.536;2023-03-23T15:06:02;8.35;;;3.03;;
60006;SDS011;45863;50.336;3.536;2023-03-23T15:08:30;8.85;;;2.65;;
60006;SDS011;45863;50.336;3.536;2023-03-23T15:11:06;11.52;;;2.55;;
60006;SDS011;45863;50.336;3.536;2023-03-23T15:13:33;9.27;;;2.40;;
60006;SDS011;45863;50.336;3.536;2023-03-23T15:16:03;12.27;;;3.05;;
60006;SDS011;45863;50.336;3.536;2023-03-23T15:18:30;13.50;;;3.50;;
60006;SDS011;45863;50.336;3.536;2023-03-23T15:20:56;10.13;;;2.90;;
60006;SDS011;45863;50.336;3.536;2023-03-23T15:23:28;6.60;;;2.55;;
60006;SDS011;45863;50.336;3.536;2023-03-23T15:25:55;11.30;;;3.85;;
60006;SDS011;45863;50.336;3.536;2023-03-23T15:28:22;12.80;;;3.80;;
60006;SDS011;45863;50.336;3.536;2023-03-23T15:30:53;17.25;;;3.67;;
60006;SDS011;45863;50.336;3.536;2023-03-23T15:33:19;8.90;;;3.10;;
60006;SDS011;45863;50.336;3.536;2023-03-23T15:35:51;11.38;;;3.65;;
60006;SDS011;45863;50.336;3.536;2023-03-23T15:38:19;15.05;;;4.13;;
60006;SDS011;45863;50.336;3.536;2023-03-23T15:40:45;11.02;;;3.88;;
60006;SDS011;45863;50.336;3.536;2023-03-23T15:45:57;15.02;;;4.80;;
60006;SDS011;45863;50.336;3.536;2023-03-23T15:48:44;18.38;;;4.90;;
60006;SDS011;45863;50.336;3.536;2023-03-23T15:51:10;9.25;;;4.10;;
60006;SDS011;45863;50.336;3.536;2023-03-23T15:53:37;15.32;;;3.50;;
60006;SDS011;45863;50.336;3.536;2023-03-23T15:56:04;13.55;;;3.88;;
60006;SDS011;45863;50.336;3.536;2023-03-23T15:58:30;12.60;;;2.72;;
60006;SDS011;45863;50.336;3.536;2023-03-23T16:00:55;14.18;;;3.92;;
60006;SDS011;45863;50.336;3.536;2023-03-23T16:03:25;9.57;;;3.35;;
60006;SDS011;45863;50.336;3.536;2023-03-23T16:05:52;13.70;;;4.03;;
60006;SDS011;45863;50.336;3.536;2023-03-23T16:08:17;13.70;;;3.35;;
60006;SDS011;45863;50.336;3.536;2023-03-23T16:10:42;12.70;;;3.45;;
60006;SDS011;45863;50.336;3.536;2023-03-23T16:13:07;12.53;;;4.07;;
60006;SDS011;45863;50.336;3.536;2023-03-23T16:15:33;11.90;;;3.57;;
60006;SDS011;45863;50.336;3.536;2023-03-23T16:17:58;15.38;;;4.72;;
60006;SDS011;45863;50.336;3.536;2023-03-23T16:20:23;18.00;;;4.40;;
60006;SDS011;45863;50.336;3.536;2023-03-23T16:22:49;9.65;;;3.13;;
60006;SDS011;45863;50.336;3.536;2023-03-23T16:25:15;19.02;;;4.60;;
60006;SDS011;45863;50.336;3.536;2023-03-23T16:27:40;15.70;;;5.43;;
60006;SDS011;45863;50.336;3.536;2023-03-23T16:30:24;15.68;;;4.05;;
60006;SDS011;45863;50.336;3.536;2023-03-23T16:32:50;17.17;;;4.70;;
60006;SDS011;45863;50.336;3.536;2023-03-23T16:35:15;11.95;;;4.43;;
60006;SDS011;45863;50.336;3.536;2023-03-23T16:37:44;13.68;;;4.53;;
60006;SDS011;45863;50.336;3.536;2023-03-23T16:40:10;14.23;;;4.50;;
60006;SDS011;45863;50.336;3.536;2023-03-23T16:42:36;17.38;;;4.10;;
60006;SDS011;45863;50.336;3.536;2023-03-23T16:45:01;15.20;;;4.37;;
60006;SDS011;45863;50.336;3.536;2023-03-23T16:47:26;17.60;;;4.70;;
60006;SDS011;45863;50.336;3.536;2023-03-23T16:49:51;20.48;;;4.93;;